sensor_id;sensor_type;location;lat;lon;timestamp;P1;durP1;ratioP1;P2;durP2;ratioP2
47161;SDS011;32921;53.256;8.198;2022-10-16T00:02:07;13.40;;;7.38;;
47161;SDS011;32921;53.256;8.198;2022-10-16T00:04:32;16.05;;;7.45;;
47161;SDS011;32921;53.256;8.198;2022-10-16T00:06:58;15.60;;;7.70;;
47161;SDS011;32921;53.256;8.198;2022-10-16T00:09:23;16.75;;;7.35;;
47161;SDS011;32921;53.256;8.198;2022-10-16T00:11:51;14.95;;;7.13;;
47161;SDS011;32921;53.256;8.198;2022-10-16T00:14:16;14.35;;;6.68;;
47161;SDS011;32921;53.256;8.198;2022-10-16T00:16:42;14.23;;;6.95;;
47161;SDS011;32921;53.256;8.198;2022-10-16T00:19:08;15.02;;;6.50;;
47161;SDS011;32921;53.256;8.198;2022-10-16T00:21:36;18.27;;;6.75;;
47161;SDS011;32921;53.256;8.198;2022-10-16T00:24:06;15.70;;;6.95;;
47161;SDS011;32921;53.256;8.198;2022-10-16T00:26:34;15.35;;;5.97;;
47161;SDS011;32921;53.256;8.198;2022-10-16T00:29:02;16.27;;;6.32;;
47161;SDS011;32921;53.256;8.198;2022-10-16T00:31:30;14.05;;;6.05;;
47161;SDS011;32921;53.256;8.198;2022-10-16T00:33:57;17.05;;;6.13;;
47161;SDS011;32921;53.256;8.198;2022-10-16T00:36:24;14.23;;;5.95;;
47161;SDS011;32921;53.256;8.198;2022-10-16T00:38:52;18.63;;;6.10;;
47161;SDS011;32921;53.256;8.198;2022-10-16T00:41:19;13.00;;;5.15;;
47161;SDS011;32921;53.256;8.198;2022-10-16T00:43:50;17.25;;;5.63;;
47161;SDS011;32921;53.256;8.198;2022-10-16T00:46:24;11.00;;;5.45;;
47161;SDS011;32921;53.256;8.198;2022-10-16T00:49:00;11.90;;;5.18;;
47161;SDS011;32921;53.256;8.198;2022-10-16T00:51:37;19.23;;;5.63;;
47161;SDS011;32921;53.256;8.198;2022-10-16T00:54:08;11.00;;;5.35;;
47161;SDS011;32921;53.256;8.198;2022-10-16T00:56:38;13.52;;;4.88;;
47161;SDS011;32921;53.256;8.198;2022-10-16T00:59:05;10.70;;;4.95;;
47161;SDS011;32921;53.256;8.198;2022-10-16T01:01:53;13.18;;;5.10;;
47161;SDS011;32921;53.256;8.198;2022-10-16T01:04:20;11.63;;;4.55;;
47161;SDS011;32921;53.256;8.198;2022-10-16T01:06:52;10.35;;;4.82;;
47161;SDS011;32921;53.256;8.198;2022-10-16T01:09:46;9.77;;;4.40;;
47161;SDS011;32921;53.256;8.198;2022-10-16T01:12:29;10.88;;;4.95;;
47161;SDS011;32921;53.256;8.198;2022-10-16T01:23:05;11.82;;;4.28;;
47161;SDS011;32921;53.256;8.198;2022-10-16T01:28:21;14.40;;;4.20;;
47161;SDS011;32921;53.256;8.198;2022-10-16T01:30:53;11.88;;;4.70;;
47161;SDS011;32921;53.256;8.198;2022-10-16T01:33:24;12.00;;;4.70;;
47161;SDS011;32921;53.256;8.198;2022-10-16T01:35:56;10.52;;;4.00;;
47161;SDS011;32921;53.256;8.198;2022-10-16T01:38:31;10.02;;;4.35;;
47161;SDS011;32921;53.256;8.198;2022-10-16T01:41:09;15.20;;;4.45;;
47161;SDS011;32921;53.256;8.198;2022-10-16T01:43:46;14.27;;;4.38;;
47161;SDS011;32921;53.256;8.198;2022-10-16T01:46:21;12.57;;;4.38;;
47161;SDS011;32921;53.256;8.198;2022-10-16T01:48:48;15.70;;;4.70;;
47161;SDS011;32921;53.256;8.198;2022-10-16T01:51:15;9.38;;;3.88;;
47161;SDS011;32921;53.256;8.198;2022-10-16T01:53:44;10.73;;;3.85;;
47161;SDS011;32921;53.256;8.198;2022-10-16T01:56:14;12.85;;;3.90;;
47161;SDS011;32921;53.256;8.198;2022-10-16T01:58:44;12.43;;;3.97;;
47161;SDS011;32921;53.256;8.198;2022-10-16T02:01:13;10.65;;;3.28;;
47161;SDS011;32921;53.256;8.198;2022-10-16T02:03:43;10.25;;;3.50;;
47161;SDS011;32921;53.256;8.198;2022-10-16T02:06:11;10.13;;;3.80;;
47161;SDS011;32921;53.256;8.198;2022-10-16T02:08:37;14.02;;;3.50;;
47161;SDS011;32921;53.256;8.198;2022-10-16T02:11:05;9.60;;;3.60;;
47161;SDS011;32921;53.256;8.198;2022-10-16T02:13:37;9.95;;;3.58;;
47161;SDS011;32921;53.256;8.198;2022-10-16T02:16:17;9.55;;;3.58;;
47161;SDS011;32921;53.256;8.198;2022-10-16T02:18:43;11.45;;;3.47;;
47161;SDS011;32921;53.256;8.198;2022-10-16T02:26:49;12.30;;;3.20;;
47161;SDS011;32921;53.256;8.198;2022-10-16T02:29:39;11.15;;;3.47;;
47161;SDS011;32921;53.256;8.198;2022-10-16T02:32:10;10.55;;;3.70;;
47161;SDS011;32921;53.256;8.198;2022-10-16T02:34:39;10.30;;;3.10;;
47161;SDS011;32921;53.256;8.198;2022-10-16T02:37:06;10.25;;;3.30;;
47161;SDS011;32921;53.256;8.198;2022-10-16T02:39:35;11.60;;;3.40;;
47161;SDS011;32921;53.256;8.198;2022-10-16T02:42:01;7.72;;;3.03;;
47161;SDS011;32921;53.256;8.198;2022-10-16T02:44:28;11.90;;;3.60;;
47161;SDS011;32921;53.256;8.198;2022-10-16T02:46:54;11.38;;;3.47;;
47161;SDS011;32921;53.256;8.198;2022-10-16T02:49:20;9.90;;;3.13;;
47161;SDS011;32921;53.256;8.198;2022-10-16T02:51:47;9.57;;;3.30;;
47161;SDS011;32921;53.256;8.198;2022-10-16T02:54:16;11.07;;;3.53;;
47161;SDS011;32921;53.256;8.198;2022-10-16T02:56:41;10.63;;;3.33;;
47161;SDS011;32921;53.256;8.198;2022-10-16T02:59:09;8.48;;;3.10;;
47161;SDS011;32921;53.256;8.198;2022-10-16T03:01:35;11.25;;;3.38;;
47161;SDS011;32921;53.256;8.198;2022-10-16T03:04:00;8.32;;;2.88;;
47161;SDS011;32921;53.256;8.198;2022-10-16T03:06:26;7.38;;;2.60;;
47161;SDS011;32921;53.256;8.198;2022-10-16T03:08:51;10.20;;;2.85;;
47161;SDS011;32921;53.256;8.198;2022-10-16T03:11:17;13.77;;;2.88;;
47161;SDS011;32921;53.256;8.198;2022-10-16T03:13:42;8.88;;;2.90;;
47161;SDS011;32921;53.256;8.198;2022-10-16T03:16:08;10.55;;;3.05;;
47161;SDS011;32921;53.256;8.198;2022-10-16T03:18:33;14.93;;;3.03;;
47161;SDS011;32921;53.256;8.198;2022-10-16T03:21:02;8.23;;;2.47;;
47161;SDS011;32921;53.256;8.198;2022-10-16T03:23:28;7.70;;;2.80;;
47161;SDS011;32921;53.256;8.198;2022-10-16T03:25:55;9.93;;;2.97;;
47161;SDS011;32921;53.256;8.198;2022-10-16T03:28:22;6.47;;;3.10;;
47161;SDS011;32921;53.256;8.198;2022-10-16T03:30:47;5.63;;;2.50;;
47161;SDS011;32921;53.256;8.198;2022-10-16T03:33:13;7.57;;;2.75;;
47161;SDS011;32921;53.256;8.198;2022-10-16T03:35:39;9.43;;;2.75;;
47161;SDS011;32921;53.256;8.198;2022-10-16T03:38:04;9.10;;;2.83;;
47161;SDS011;32921;53.256;8.198;2022-10-16T03:40:30;8.85;;;2.80;;
47161;SDS011;32921;53.256;8.198;2022-10-16T03:42:58;7.90;;;2.97;;
47161;SDS011;32921;53.256;8.198;2022-10-16T03:45:25;8.82;;;2.55;;
47161;SDS011;32921;53.256;8.198;2022-10-16T03:47:52;6.72;;;2.40;;
47161;SDS011;32921;53.256;8.198;2022-10-16T03:50:17;12.70;;;3.22;;
47161;SDS011;32921;53.256;8.198;2022-10-16T03:52:45;8.30;;;2.60;;
47161;SDS011;32921;53.256;8.198;2022-10-16T03:55:10;13.55;;;2.60;;
47161;SDS011;32921;53.256;8.198;2022-10-16T03:57:41;7.97;;;2.35;;
47161;SDS011;32921;53.256;8.198;2022-10-16T04:00:07;5.75;;;2.45;;
47161;SDS011;32921;53.256;8.198;2022-10-16T04:02:33;9.25;;;2.78;;
47161;SDS011;32921;53.256;8.198;2022-10-16T04:05:00;7.35;;;2.35;;
47161;SDS011;32921;53.256;8.198;2022-10-16T04:07:27;10.43;;;2.65;;
47161;SDS011;32921;53.256;8.198;2022-10-16T04:09:53;11.00;;;2.90;;
47161;SDS011;32921;53.256;8.198;2022-10-16T04:12:26;9.00;;;3.20;;
47161;SDS011;32921;53.256;8.198;2022-10-16T04:14:52;11.40;;;2.70;;
47161;SDS011;32921;53.256;8.198;2022-10-16T04:17:17;6.07;;;2.50;;
47161;SDS011;32921;53.256;8.198;2022-10-16T04:19:43;6.95;;;2.83;;
47161;SDS011;32921;53.256;8.198;2022-10-16T04:22:08;7.78;;;2.85;;
47161;SDS011;32921;53.256;8.198;2022-10-16T04:24:34;6.32;;;2.85;;
47161;SDS011;32921;53.256;8.198;2022-10-16T04:27:03;7.95;;;3.08;;
47161;SDS011;32921;53.256;8.198;2022-10-16T04:29:28;9.05;;;3.08;;
47161;SDS011;32921;53.256;8.198;2022-10-16T04:31:55;7.90;;;3.25;;
47161;SDS011;32921;53.256;8.198;2022-10-16T04:34:20;7.25;;;3.97;;
47161;SDS011;32921;53.256;8.198;2022-10-16T04:36:47;12.05;;;3.83;;
47161;SDS011;32921;53.256;8.198;2022-10-16T04:39:15;10.02;;;3.45;;
47161;SDS011;32921;53.256;8.198;2022-10-16T04:41:44;12.68;;;3.42;;
47161;SDS011;32921;53.256;8.198;2022-10-16T04:44:09;9.77;;;3.80;;
47161;SDS011;32921;53.256;8.198;2022-10-16T04:46:35;8.52;;;3.55;;
47161;SDS011;32921;53.256;8.198;2022-10-16T04:49:00;12.35;;;4.15;;
47161;SDS011;32921;53.256;8.198;2022-10-16T04:51:26;12.85;;;3.90;;
47161;SDS011;32921;53.256;8.198;2022-10-16T04:53:54;11.30;;;4.35;;
47161;SDS011;32921;53.256;8.198;2022-10-16T04:56:21;10.32;;;4.80;;
47161;SDS011;32921;53.256;8.198;2022-10-16T04:58:48;10.98;;;4.82;;
47161;SDS011;32921;53.256;8.198;2022-10-16T05:01:14;11.90;;;4.78;;
47161;SDS011;32921;53.256;8.198;2022-10-16T05:03:39;10.93;;;4.75;;
47161;SDS011;32921;53.256;8.198;2022-10-16T05:06:07;17.40;;;5.13;;
47161;SDS011;32921;53.256;8.198;2022-10-16T05:08:35;12.82;;;5.43;;
47161;SDS011;32921;53.256;8.198;2022-10-16T05:11:00;10.73;;;4.97;;
47161;SDS011;32921;53.256;8.198;2022-10-16T05:13:26;14.48;;;5.50;;
47161;SDS011;32921;53.256;8.198;2022-10-16T05:15:52;10.70;;;5.28;;
47161;SDS011;32921;53.256;8.198;2022-10-16T05:18:18;11.70;;;5.05;;
47161;SDS011;32921;53.256;8.198;2022-10-16T05:20:43;14.10;;;5.88;;
47161;SDS011;32921;53.256;8.198;2022-10-16T05:23:09;15.88;;;6.53;;
47161;SDS011;32921;53.256;8.198;2022-10-16T05:25:36;12.63;;;6.07;;
47161;SDS011;32921;53.256;8.198;2022-10-16T05:28:02;16.20;;;6.35;;
47161;SDS011;32921;53.256;8.198;2022-10-16T05:30:28;12.40;;;6.97;;
47161;SDS011;32921;53.256;8.198;2022-10-16T05:32:54;13.27;;;7.53;;
47161;SDS011;32921;53.256;8.198;2022-10-16T05:35:20;12.80;;;7.07;;
47161;SDS011;32921;53.256;8.198;2022-10-16T05:37:46;13.73;;;6.43;;
47161;SDS011;32921;53.256;8.198;2022-10-16T05:40:12;13.55;;;7.80;;
47161;SDS011;32921;53.256;8.198;2022-10-16T05:42:39;13.13;;;7.60;;
47161;SDS011;32921;53.256;8.198;2022-10-16T05:45:06;14.45;;;8.55;;
47161;SDS011;32921;53.256;8.198;2022-10-16T05:47:35;17.90;;;8.40;;
47161;SDS011;32921;53.256;8.198;2022-10-16T05:50:01;20.15;;;8.60;;
47161;SDS011;32921;53.256;8.198;2022-10-16T05:52:29;14.43;;;8.43;;
47161;SDS011;32921;53.256;8.198;2022-10-16T05:54:55;16.58;;;8.52;;
47161;SDS011;32921;53.256;8.198;2022-10-16T05:57:20;20.25;;;9.48;;
47161;SDS011;32921;53.256;8.198;2022-10-16T05:59:46;20.42;;;9.35;;
47161;SDS011;32921;53.256;8.198;2022-10-16T06:02:12;22.80;;;10.10;;
47161;SDS011;32921;53.256;8.198;2022-10-16T06:04:38;18.23;;;9.48;;
47161;SDS011;32921;53.256;8.198;2022-10-16T06:07:05;17.73;;;9.75;;
47161;SDS011;32921;53.256;8.198;2022-10-16T06:09:31;15.48;;;9.15;;
47161;SDS011;32921;53.256;8.198;2022-10-16T06:11:57;15.55;;;8.90;;
47161;SDS011;32921;53.256;8.198;2022-10-16T06:14:23;18.02;;;9.45;;
47161;SDS011;32921;53.256;8.198;2022-10-16T06:16:49;15.85;;;9.32;;
47161;SDS011;32921;53.256;8.198;2022-10-16T06:19:14;17.08;;;9.35;;
47161;SDS011;32921;53.256;8.198;2022-10-16T06:21:41;13.55;;;8.88;;
47161;SDS011;32921;53.256;8.198;2022-10-16T06:24:06;15.77;;;8.73;;
47161;SDS011;32921;53.256;8.198;2022-10-16T06:26:32;17.80;;;9.20;;
47161;SDS011;32921;53.256;8.198;2022-10-16T06:28:58;19.20;;;8.13;;
47161;SDS011;32921;53.256;8.198;2022-10-16T06:31:25;16.75;;;9.57;;
47161;SDS011;32921;53.256;8.198;2022-10-16T06:33:53;19.15;;;8.43;;
47161;SDS011;32921;53.256;8.198;2022-10-16T06:36:19;17.42;;;8.57;;
47161;SDS011;32921;53.256;8.198;2022-10-16T06:38:45;14.50;;;8.32;;
47161;SDS011;32921;53.256;8.198;2022-10-16T06:41:12;18.23;;;8.48;;
47161;SDS011;32921;53.256;8.198;2022-10-16T06:43:39;13.63;;;7.85;;
47161;SDS011;32921;53.256;8.198;2022-10-16T06:46:05;14.27;;;7.47;;
47161;SDS011;32921;53.256;8.198;2022-10-16T06:48:34;13.10;;;7.85;;
47161;SDS011;32921;53.256;8.198;2022-10-16T06:51:02;11.50;;;7.13;;
47161;SDS011;32921;53.256;8.198;2022-10-16T06:53:30;14.32;;;7.80;;
47161;SDS011;32921;53.256;8.198;2022-10-16T06:55:57;14.65;;;7.35;;
47161;SDS011;32921;53.256;8.198;2022-10-16T06:58:31;13.85;;;7.38;;
47161;SDS011;32921;53.256;8.198;2022-10-16T07:00:56;12.20;;;7.15;;
47161;SDS011;32921;53.256;8.198;2022-10-16T07:03:22;12.63;;;6.57;;
47161;SDS011;32921;53.256;8.198;2022-10-16T07:05:47;12.73;;;6.32;;
47161;SDS011;32921;53.256;8.198;2022-10-16T07:08:13;12.60;;;6.75;;
47161;SDS011;32921;53.256;8.198;2022-10-16T07:10:39;10.73;;;6.30;;
47161;SDS011;32921;53.256;8.198;2022-10-16T07:13:06;10.00;;;5.78;;
47161;SDS011;32921;53.256;8.198;2022-10-16T07:15:32;12.00;;;6.28;;
47161;SDS011;32921;53.256;8.198;2022-10-16T07:17:58;10.18;;;5.43;;
47161;SDS011;32921;53.256;8.198;2022-10-16T07:20:24;9.32;;;4.82;;
47161;SDS011;32921;53.256;8.198;2022-10-16T07:22:50;9.55;;;4.45;;
47161;SDS011;32921;53.256;8.198;2022-10-16T07:25:16;6.65;;;4.00;;
47161;SDS011;32921;53.256;8.198;2022-10-16T07:27:41;11.77;;;4.10;;
47161;SDS011;32921;53.256;8.198;2022-10-16T07:30:07;7.07;;;3.78;;
47161;SDS011;32921;53.256;8.198;2022-10-16T07:32:34;12.15;;;4.47;;
47161;SDS011;32921;53.256;8.198;2022-10-16T07:35:01;7.15;;;4.43;;
47161;SDS011;32921;53.256;8.198;2022-10-16T07:37:30;8.60;;;3.75;;
47161;SDS011;32921;53.256;8.198;2022-10-16T07:39:56;11.18;;;4.30;;
47161;SDS011;32921;53.256;8.198;2022-10-16T07:42:22;7.85;;;3.92;;
47161;SDS011;32921;53.256;8.198;2022-10-16T07:44:49;10.07;;;3.90;;
47161;SDS011;32921;53.256;8.198;2022-10-16T07:47:14;11.40;;;4.50;;
47161;SDS011;32921;53.256;8.198;2022-10-16T07:49:43;10.30;;;4.05;;
47161;SDS011;32921;53.256;8.198;2022-10-16T07:52:09;8.85;;;4.10;;
47161;SDS011;32921;53.256;8.198;2022-10-16T07:54:36;6.95;;;3.70;;
47161;SDS011;32921;53.256;8.198;2022-10-16T07:57:04;11.68;;;3.80;;
47161;SDS011;32921;53.256;8.198;2022-10-16T07:59:30;10.32;;;3.92;;
47161;SDS011;32921;53.256;8.198;2022-10-16T08:01:56;7.53;;;3.33;;
47161;SDS011;32921;53.256;8.198;2022-10-16T08:04:22;8.20;;;3.72;;
47161;SDS011;32921;53.256;8.198;2022-10-16T08:06:47;8.70;;;3.20;;
47161;SDS011;32921;53.256;8.198;2022-10-16T08:09:15;7.97;;;3.25;;
47161;SDS011;32921;53.256;8.198;2022-10-16T08:11:40;7.40;;;3.42;;
47161;SDS011;32921;53.256;8.198;2022-10-16T08:14:06;8.27;;;3.30;;
47161;SDS011;32921;53.256;8.198;2022-10-16T08:16:31;6.82;;;2.70;;
47161;SDS011;32921;53.256;8.198;2022-10-16T08:18:57;8.55;;;3.22;;
47161;SDS011;32921;53.256;8.198;2022-10-16T08:21:22;8.35;;;3.10;;
47161;SDS011;32921;53.256;8.198;2022-10-16T08:23:52;6.55;;;2.53;;
47161;SDS011;32921;53.256;8.198;2022-10-16T08:26:18;11.45;;;3.20;;
47161;SDS011;32921;53.256;8.198;2022-10-16T08:28:44;5.82;;;2.55;;
47161;SDS011;32921;53.256;8.198;2022-10-16T08:31:11;10.80;;;2.85;;
47161;SDS011;32921;53.256;8.198;2022-10-16T08:33:38;6.03;;;2.28;;
47161;SDS011;32921;53.256;8.198;2022-10-16T08:36:06;9.38;;;2.33;;
47161;SDS011;32921;53.256;8.198;2022-10-16T08:38:32;7.47;;;2.15;;
47161;SDS011;32921;53.256;8.198;2022-10-16T08:41:19;6.47;;;2.22;;
47161;SDS011;32921;53.256;8.198;2022-10-16T08:46:25;12.68;;;2.80;;
47161;SDS011;32921;53.256;8.198;2022-10-16T08:48:54;8.43;;;2.30;;
47161;SDS011;32921;53.256;8.198;2022-10-16T08:51:31;7.05;;;2.50;;
47161;SDS011;32921;53.256;8.198;2022-10-16T08:54:03;10.95;;;2.97;;
47161;SDS011;32921;53.256;8.198;2022-10-16T08:56:30;13.40;;;2.42;;
47161;SDS011;32921;53.256;8.198;2022-10-16T08:58:57;7.10;;;1.90;;
47161;SDS011;32921;53.256;8.198;2022-10-16T09:01:23;7.15;;;2.22;;
47161;SDS011;32921;53.256;8.198;2022-10-16T09:04:05;6.50;;;2.00;;
47161;SDS011;32921;53.256;8.198;2022-10-16T09:09:26;6.97;;;1.98;;
47161;SDS011;32921;53.256;8.198;2022-10-16T09:12:18;6.68;;;2.05;;
47161;SDS011;32921;53.256;8.198;2022-10-16T09:20:18;5.43;;;1.70;;
47161;SDS011;32921;53.256;8.198;2022-10-16T09:26:02;5.72;;;1.90;;
47161;SDS011;32921;53.256;8.198;2022-10-16T09:28:30;6.70;;;1.92;;
47161;SDS011;32921;53.256;8.198;2022-10-16T09:30:55;9.45;;;2.20;;
47161;SDS011;32921;53.256;8.198;2022-10-16T09:33:22;6.63;;;1.88;;
47161;SDS011;32921;53.256;8.198;2022-10-16T09:38:29;12.48;;;1.65;;
47161;SDS011;32921;53.256;8.198;2022-10-16T09:40:57;5.75;;;1.52;;
47161;SDS011;32921;53.256;8.198;2022-10-16T09:43:25;13.30;;;1.80;;
47161;SDS011;32921;53.256;8.198;2022-10-16T09:46:04;8.23;;;1.80;;
47161;SDS011;32921;53.256;8.198;2022-10-16T09:48:47;6.90;;;1.77;;
47161;SDS011;32921;53.256;8.198;2022-10-16T09:53:48;10.07;;;1.70;;
47161;SDS011;32921;53.256;8.198;2022-10-16T09:56:23;6.85;;;1.83;;
47161;SDS011;32921;53.256;8.198;2022-10-16T09:58:52;8.05;;;1.52;;
47161;SDS011;32921;53.256;8.198;2022-10-16T10:01:19;6.93;;;1.48;;
47161;SDS011;32921;53.256;8.198;2022-10-16T10:03:46;5.85;;;1.10;;
47161;SDS011;32921;53.256;8.198;2022-10-16T10:06:17;5.07;;;1.10;;
47161;SDS011;32921;53.256;8.198;2022-10-16T10:08:53;2.83;;;0.88;;
47161;SDS011;32921;53.256;8.198;2022-10-16T10:11:38;4.50;;;1.20;;
47161;SDS011;32921;53.256;8.198;2022-10-16T10:16:47;7.85;;;1.48;;
47161;SDS011;32921;53.256;8.198;2022-10-16T10:19:20;4.93;;;1.33;;
47161;SDS011;32921;53.256;8.198;2022-10-16T10:21:48;4.25;;;1.02;;
47161;SDS011;32921;53.256;8.198;2022-10-16T10:24:16;7.30;;;1.30;;
47161;SDS011;32921;53.256;8.198;2022-10-16T10:26:50;6.40;;;1.17;;
47161;SDS011;32921;53.256;8.198;2022-10-16T10:32:34;6.28;;;1.13;;
47161;SDS011;32921;53.256;8.198;2022-10-16T10:35:14;5.60;;;1.20;;
47161;SDS011;32921;53.256;8.198;2022-10-16T10:37:53;6.95;;;1.25;;
47161;SDS011;32921;53.256;8.198;2022-10-16T10:40:39;7.28;;;1.40;;
47161;SDS011;32921;53.256;8.198;2022-10-16T10:45:58;6.88;;;1.30;;
47161;SDS011;32921;53.256;8.198;2022-10-16T10:48:50;7.63;;;1.30;;
47161;SDS011;32921;53.256;8.198;2022-10-16T10:54:20;9.23;;;1.60;;
47161;SDS011;32921;53.256;8.198;2022-10-16T10:56:51;3.65;;;0.93;;
47161;SDS011;32921;53.256;8.198;2022-10-16T11:01:56;8.88;;;1.30;;
47161;SDS011;32921;53.256;8.198;2022-10-16T11:07:36;9.60;;;1.35;;
47161;SDS011;32921;53.256;8.198;2022-10-16T11:12:48;8.77;;;1.60;;
47161;SDS011;32921;53.256;8.198;2022-10-16T11:15:32;10.50;;;2.00;;
47161;SDS011;32921;53.256;8.198;2022-10-16T11:18:04;11.20;;;1.80;;
47161;SDS011;32921;53.256;8.198;2022-10-16T11:20:42;12.00;;;1.58;;
47161;SDS011;32921;53.256;8.198;2022-10-16T11:23:23;10.60;;;1.70;;
47161;SDS011;32921;53.256;8.198;2022-10-16T11:26:21;8.73;;;1.80;;
47161;SDS011;32921;53.256;8.198;2022-10-16T11:31:22;14.38;;;1.75;;
47161;SDS011;32921;53.256;8.198;2022-10-16T11:34:21;9.55;;;1.48;;
47161;SDS011;32921;53.256;8.198;2022-10-16T11:37:05;9.48;;;1.55;;
47161;SDS011;32921;53.256;8.198;2022-10-16T11:43:01;11.27;;;1.60;;
47161;SDS011;32921;53.256;8.198;2022-10-16T11:45:39;9.93;;;1.55;;
47161;SDS011;32921;53.256;8.198;2022-10-16T11:51:09;9.95;;;1.55;;
47161;SDS011;32921;53.256;8.198;2022-10-16T11:56:29;10.73;;;1.52;;
47161;SDS011;32921;53.256;8.198;2022-10-16T11:59:02;8.27;;;1.25;;
47161;SDS011;32921;53.256;8.198;2022-10-16T12:01:50;6.65;;;1.55;;
47161;SDS011;32921;53.256;8.198;2022-10-16T12:04:31;6.65;;;1.48;;
47161;SDS011;32921;53.256;8.198;2022-10-16T12:07:14;10.05;;;1.50;;
47161;SDS011;32921;53.256;8.198;2022-10-16T12:09:43;8.77;;;1.60;;
47161;SDS011;32921;53.256;8.198;2022-10-16T12:14:59;8.57;;;1.58;;
47161;SDS011;32921;53.256;8.198;2022-10-16T12:17:27;8.90;;;1.70;;
47161;SDS011;32921;53.256;8.198;2022-10-16T12:25:24;6.70;;;1.25;;
47161;SDS011;32921;53.256;8.198;2022-10-16T12:27:58;12.05;;;1.58;;
47161;SDS011;32921;53.256;8.198;2022-10-16T12:30:25;6.75;;;1.40;;
47161;SDS011;32921;53.256;8.198;2022-10-16T12:33:35;10.00;;;1.58;;
47161;SDS011;32921;53.256;8.198;2022-10-16T12:35:46;12.27;;;1.70;;
47161;SDS011;32921;53.256;8.198;2022-10-16T12:38:19;9.52;;;1.38;;
47161;SDS011;32921;53.256;8.198;2022-10-16T12:40:46;9.63;;;1.58;;
47161;SDS011;32921;53.256;8.198;2022-10-16T12:43:34;9.48;;;1.75;;
47161;SDS011;32921;53.256;8.198;2022-10-16T12:48:33;11.48;;;1.77;;
47161;SDS011;32921;53.256;8.198;2022-10-16T12:53:58;9.43;;;1.83;;
47161;SDS011;32921;53.256;8.198;2022-10-16T13:02:30;11.18;;;1.73;;
47161;SDS011;32921;53.256;8.198;2022-10-16T13:05:16;12.05;;;1.50;;
47161;SDS011;32921;53.256;8.198;2022-10-16T13:21:48;11.57;;;1.63;;
47161;SDS011;32921;53.256;8.198;2022-10-16T13:24:19;11.82;;;1.63;;
47161;SDS011;32921;53.256;8.198;2022-10-16T13:27:13;11.20;;;1.73;;
47161;SDS011;32921;53.256;8.198;2022-10-16T13:29:53;8.30;;;1.52;;
47161;SDS011;32921;53.256;8.198;2022-10-16T13:32:26;12.98;;;2.00;;
47161;SDS011;32921;53.256;8.198;2022-10-16T13:34:52;9.23;;;1.70;;
47161;SDS011;32921;53.256;8.198;2022-10-16T13:37:19;10.18;;;1.70;;
47161;SDS011;32921;53.256;8.198;2022-10-16T13:39:46;8.27;;;1.60;;
47161;SDS011;32921;53.256;8.198;2022-10-16T13:42:26;17.02;;;1.98;;
47161;SDS011;32921;53.256;8.198;2022-10-16T13:44:53;10.85;;;1.90;;
47161;SDS011;32921;53.256;8.198;2022-10-16T13:47:24;5.93;;;1.35;;
47161;SDS011;32921;53.256;8.198;2022-10-16T13:52:30;9.25;;;1.48;;
47161;SDS011;32921;53.256;8.198;2022-10-16T13:54:56;8.43;;;1.50;;
47161;SDS011;32921;53.256;8.198;2022-10-16T13:57:22;9.30;;;1.50;;
47161;SDS011;32921;53.256;8.198;2022-10-16T13:59:50;10.68;;;1.67;;
47161;SDS011;32921;53.256;8.198;2022-10-16T14:02:18;8.63;;;1.60;;
47161;SDS011;32921;53.256;8.198;2022-10-16T14:04:59;7.72;;;1.50;;
47161;SDS011;32921;53.256;8.198;2022-10-16T14:07:27;11.27;;;1.70;;
47161;SDS011;32921;53.256;8.198;2022-10-16T14:09:56;6.50;;;1.17;;
47161;SDS011;32921;53.256;8.198;2022-10-16T14:12:30;9.15;;;1.67;;
47161;SDS011;32921;53.256;8.198;2022-10-16T14:14:55;7.85;;;1.58;;
47161;SDS011;32921;53.256;8.198;2022-10-16T14:17:26;10.63;;;1.70;;
47161;SDS011;32921;53.256;8.198;2022-10-16T14:19:55;8.70;;;1.38;;
47161;SDS011;32921;53.256;8.198;2022-10-16T14:24:59;10.95;;;1.73;;
47161;SDS011;32921;53.256;8.198;2022-10-16T14:27:29;9.35;;;1.90;;
47161;SDS011;32921;53.256;8.198;2022-10-16T14:30:08;9.63;;;2.10;;
47161;SDS011;32921;53.256;8.198;2022-10-16T14:32:39;9.27;;;1.95;;
47161;SDS011;32921;53.256;8.198;2022-10-16T14:35:21;10.20;;;1.55;;
47161;SDS011;32921;53.256;8.198;2022-10-16T14:37:54;11.48;;;1.88;;
47161;SDS011;32921;53.256;8.198;2022-10-16T14:40:23;10.48;;;1.35;;
47161;SDS011;32921;53.256;8.198;2022-10-16T14:42:50;11.25;;;1.65;;
47161;SDS011;32921;53.256;8.198;2022-10-16T14:45:19;12.43;;;1.80;;
47161;SDS011;32921;53.256;8.198;2022-10-16T14:47:49;9.35;;;1.70;;
47161;SDS011;32921;53.256;8.198;2022-10-16T14:50:18;9.05;;;1.60;;
47161;SDS011;32921;53.256;8.198;2022-10-16T14:52:44;8.30;;;1.95;;
47161;SDS011;32921;53.256;8.198;2022-10-16T14:55:10;12.10;;;2.00;;
47161;SDS011;32921;53.256;8.198;2022-10-16T14:57:36;8.15;;;1.98;;
47161;SDS011;32921;53.256;8.198;2022-10-16T15:00:03;7.70;;;1.55;;
47161;SDS011;32921;53.256;8.198;2022-10-16T15:02:40;10.90;;;1.58;;
47161;SDS011;32921;53.256;8.198;2022-10-16T15:05:12;8.95;;;1.55;;
47161;SDS011;32921;53.256;8.198;2022-10-16T15:07:43;8.95;;;1.67;;
47161;SDS011;32921;53.256;8.198;2022-10-16T15:10:11;10.02;;;1.67;;
47161;SDS011;32921;53.256;8.198;2022-10-16T15:12:37;9.63;;;1.60;;
47161;SDS011;32921;53.256;8.198;2022-10-16T15:15:37;11.27;;;1.90;;
47161;SDS011;32921;53.256;8.198;2022-10-16T15:18:02;8.82;;;1.85;;
47161;SDS011;32921;53.256;8.198;2022-10-16T15:20:29;13.32;;;1.83;;
47161;SDS011;32921;53.256;8.198;2022-10-16T15:23:03;7.25;;;1.20;;
47161;SDS011;32921;53.256;8.198;2022-10-16T15:27:58;12.98;;;1.80;;
47161;SDS011;32921;53.256;8.198;2022-10-16T15:30:25;8.65;;;1.60;;
47161;SDS011;32921;53.256;8.198;2022-10-16T15:32:51;16.13;;;1.80;;
47161;SDS011;32921;53.256;8.198;2022-10-16T15:35:16;11.65;;;1.65;;
47161;SDS011;32921;53.256;8.198;2022-10-16T15:37:42;9.40;;;1.35;;
47161;SDS011;32921;53.256;8.198;2022-10-16T15:40:08;9.65;;;1.80;;
47161;SDS011;32921;53.256;8.198;2022-10-16T15:42:34;9.23;;;1.65;;
47161;SDS011;32921;53.256;8.198;2022-10-16T15:45:00;8.70;;;1.60;;
47161;SDS011;32921;53.256;8.198;2022-10-16T15:47:26;9.52;;;1.73;;
47161;SDS011;32921;53.256;8.198;2022-10-16T15:49:51;10.13;;;1.60;;
47161;SDS011;32921;53.256;8.198;2022-10-16T15:52:17;10.70;;;1.63;;
47161;SDS011;32921;53.256;8.198;2022-10-16T15:54:43;14.43;;;2.67;;
47161;SDS011;32921;53.256;8.198;2022-10-16T15:57:08;13.70;;;2.20;;
47161;SDS011;32921;53.256;8.198;2022-10-16T15:59:34;12.07;;;2.03;;
47161;SDS011;32921;53.256;8.198;2022-10-16T16:01:59;11.05;;;1.92;;
47161;SDS011;32921;53.256;8.198;2022-10-16T16:04:25;10.00;;;2.00;;
47161;SDS011;32921;53.256;8.198;2022-10-16T16:06:50;11.57;;;2.10;;
47161;SDS011;32921;53.256;8.198;2022-10-16T16:09:16;9.48;;;1.77;;
47161;SDS011;32921;53.256;8.198;2022-10-16T16:11:41;9.43;;;1.75;;
47161;SDS011;32921;53.256;8.198;2022-10-16T16:14:08;11.45;;;2.55;;
47161;SDS011;32921;53.256;8.198;2022-10-16T16:16:37;9.30;;;1.90;;
47161;SDS011;32921;53.256;8.198;2022-10-16T16:19:03;9.32;;;2.05;;
47161;SDS011;32921;53.256;8.198;2022-10-16T16:21:31;9.38;;;2.00;;
47161;SDS011;32921;53.256;8.198;2022-10-16T16:23:57;9.93;;;1.67;;
47161;SDS011;32921;53.256;8.198;2022-10-16T16:26:24;10.85;;;2.22;;
47161;SDS011;32921;53.256;8.198;2022-10-16T16:28:52;9.63;;;2.00;;
47161;SDS011;32921;53.256;8.198;2022-10-16T16:31:19;10.73;;;2.45;;
47161;SDS011;32921;53.256;8.198;2022-10-16T16:33:46;9.25;;;2.50;;
47161;SDS011;32921;53.256;8.198;2022-10-16T16:36:11;15.27;;;3.05;;
47161;SDS011;32921;53.256;8.198;2022-10-16T16:38:37;12.45;;;2.80;;
47161;SDS011;32921;53.256;8.198;2022-10-16T16:41:18;11.38;;;2.60;;
47161;SDS011;32921;53.256;8.198;2022-10-16T16:43:46;10.82;;;3.00;;